Robbins, California
Current Conditions -  °F | °C
As of 3:53 AM on Saturday 25 Oct 2014 (Local Time) from KSMF Reporting Station
Broken Clouds Broken Clouds  
Wind Chill: 60°   Ceiling: 20000
Heat Index: 60°   Visibility: 10mi
Dew Point: 53°   Wind: 9mph
Humidity: 78%   Direction: 130°SE
Pressure: 29.89"   Gusts: NA
Location:  38.87°N, 121.71°W
Report Text: KSMF 251053Z 13008KT 10SM SCT045 BKN200 16/12 A2989 RMK AO2 SLP120 T01560117 $
Loading
Personal Weather Stations






























Interactive Weather Map
Tropical Storm Tracking
New forecast layout! Learn more

10-Day Weather Forecast

Advertisements
Track Severe Weather on mobile